Shirley P. Settoon — WDF9252 — position and weather

sailwx.info

Track history (hours):
 
Tides and Currents Weather Stations Pressure Air Temp Water Temp Dewpoint Dewpoint Depression Visibility Wind Speed Wind Dir Waves Ship Positions

Shirley P. Settoon

Owner: Settoon Towing, LLC, Houma, LA. More information available from US FCC via Universal Licensing System and Coast Guard Vessel Documentation Center.

Last reported at 2017-Mar-23 11:32 UTC. Time now 2017-Mar-26 03:36 UTC.
Position N 30°06' W 090°55'.

Length 32 m; draft 10 m.

Type: Towing. MMSI: 367503240.

Date/timePositionNaut miles runAvg speedWind from/ knotsBaromVisibWave heightAir tempDewpointWater temp
2017-Mar-23 11:32N 30°06' W 090°55'0 0.0
2017-Mar-23 10:33N 30°06' W 090°55'0 0.0
2017-Mar-23 08:17N 30°06' W 090°55'0 0.0
2017-Mar-23 07:07N 30°06' W 090°55'0 0.0
2017-Mar-23 05:33N 30°06' W 090°55'30 1.2
2017-Mar-22 04:33N 30°31' W 091°15'71 4.4
2017-Mar-21 12:26N 31°41' W 091°24'8 8.0
2017-Mar-21 11:29N 31°48' W 091°21'8 6.9
2017-Mar-21 10:22N 31°52' W 091°14'6 7.7
2017-Mar-21 09:33N 31°58' W 091°11'7 7.4
2017-Mar-21 08:33N 32°02' W 091°04'5 5.3
2017-Mar-21 07:32N 32°08' W 091°04'6 6.5
2017-Mar-21 06:33N 32°12' W 090°59'8 7.8
2017-Mar-21 05:34N 32°19' W 090°54'6 6.3
2017-Mar-21 04:33N 32°23' W 090°60'7 7.1
2017-Mar-21 03:33N 32°28' W 091°06'7 7.5
2017-Mar-21 02:34N 32°35' W 091°08'  
Track history (hours):
 
Tides and Currents Weather Stations Pressure Air Temp Water Temp Dewpoint Dewpoint Depression Visibility Wind Speed Wind Dir Waves Ship Positions

Shirley P. Settoon

Owner: Settoon Towing, LLC, Houma, LA. More information available from US FCC via Universal Licensing System and Coast Guard Vessel Documentation Center.

Last reported at 2017-Mar-23 11:32 UTC. Time now 2017-Mar-26 03:36 UTC.
Position N 30°06' W 090°55'.

Length 32 m; draft 10 m.

Type: Towing. MMSI: 367503240.

Date/timePositionNaut miles runAvg speedWind from/ knotsBaromVisibWave heightAir tempDewpointWater temp
2017-Mar-23 11:32N 30°06' W 090°55'0 0.0
2017-Mar-23 10:33N 30°06' W 090°55'0 0.0
2017-Mar-23 08:17N 30°06' W 090°55'0 0.0
2017-Mar-23 07:07N 30°06' W 090°55'0 0.0
2017-Mar-23 05:33N 30°06' W 090°55'30 1.2
2017-Mar-22 04:33N 30°31' W 091°15'71 4.4
2017-Mar-21 12:26N 31°41' W 091°24'8 8.0
2017-Mar-21 11:29N 31°48' W 091°21'8 6.9
2017-Mar-21 10:22N 31°52' W 091°14'6 7.7
2017-Mar-21 09:33N 31°58' W 091°11'7 7.4
2017-Mar-21 08:33N 32°02' W 091°04'5 5.3
2017-Mar-21 07:32N 32°08' W 091°04'6 6.5
2017-Mar-21 06:33N 32°12' W 090°59'8 7.8
2017-Mar-21 05:34N 32°19' W 090°54'6 6.3
2017-Mar-21 04:33N 32°23' W 090°60'7 7.1
2017-Mar-21 03:33N 32°28' W 091°06'7 7.5
2017-Mar-21 02:34N 32°35' W 091°08'  

Dump ship's entire track history